Time;durP1;ratioP1;P1;durP2;ratioP2;P2;SDS_P1;SDS_P2;PMS_P1;PMS_P2;Temp;Humidity;BMP_temperature;BMP_pressure;BME280_temperature;BME280_humidity;BME280_pressure;Samples;Min_cycle;Max_cycle;Signal;HPM_P1;HPM_P2
2022/09/18 00:01:48;;;;;;;2.28;0.95;;;14.60;99.80;;;;;;5064903;28;20024;-82
2022/09/18 00:04:13;;;;;;;3.03;1.03;;;14.60;99.90;;;;;;5036095;28;20025;-81
2022/09/18 00:06:43;;;;;;;3.85;1.20;;;14.50;99.90;;;;;;5076526;28;20020;-81
2022/09/18 00:09:13;;;;;;;3.85;1.20;;;14.50;99.80;;;;;;5058267;28;20037;-81
2022/09/18 00:11:41;;;;;;;2.80;0.93;;;14.50;99.90;;;;;;5052226;28;20715;-81
2022/09/18 00:14:09;;;;;;;2.03;0.90;;;14.50;99.90;;;;;;5059598;28;20504;-81
2022/09/18 00:16:36;;;;;;;1.98;1.10;;;14.50;99.90;;;;;;5060836;28;20025;-81
2022/09/18 00:19:03;;;;;;;2.70;1.10;;;14.50;99.90;;;;;;5079354;28;20114;-81
2022/09/18 00:21:30;;;;;;;3.47;1.30;;;14.40;99.90;;;;;;5082914;28;20016;-81
2022/09/18 00:23:58;;;;;;;2.53;1.03;;;14.40;99.90;;;;;;5047351;28;20020;-82
2022/09/18 00:26:25;;;;;;;2.22;0.95;;;14.40;99.90;;;;;;5054415;28;20209;-82
2022/09/18 00:28:51;;;;;;;2.72;1.10;;;14.40;99.90;;;;;;5081640;28;20029;-82
2022/09/18 00:31:20;;;;;;;2.17;0.90;;;14.40;99.90;;;;;;5043700;28;20304;-82
2022/09/18 00:33:46;;;;;;;1.83;0.95;;;14.40;99.90;;;;;;5058532;28;20041;-82
2022/09/18 00:36:19;;;;;;;2.77;1.00;;;14.50;99.90;;;;;;5052564;28;20021;-82
2022/09/18 00:38:45;;;;;;;2.42;0.90;;;14.40;99.90;;;;;;5072103;28;20203;-83
2022/09/18 00:41:17;;;;;;;2.85;1.00;;;14.50;99.90;;;;;;5047732;28;20080;-83
2022/09/18 00:43:44;;;;;;;2.37;0.90;;;14.50;99.90;;;;;;5059916;28;20063;-83
2022/09/18 00:46:35;;;;;;;2.63;1.10;;;14.50;99.90;;;;;;5047144;28;20603;-83
2022/09/18 00:49:11;;;;;;;2.05;0.90;;;14.50;99.90;;;;;;5061318;28;20087;-83
2022/09/18 00:51:38;;;;;;;1.65;0.90;;;14.50;99.90;;;;;;5068415;28;20031;-84
2022/09/18 00:54:27;;;;;;;2.90;1.10;;;14.50;99.90;;;;;;5058587;28;20063;-84
2022/09/18 00:56:58;;;;;;;2.80;0.90;;;14.50;99.90;;;;;;5072827;28;20661;-83
2022/09/18 00:59:27;;;;;;;2.22;1.02;;;14.50;99.90;;;;;;5057395;28;20237;-83
2022/09/18 01:01:54;;;;;;;2.40;0.88;;;14.50;99.90;;;;;;5044718;28;20022;-82
2022/09/18 01:04:20;;;;;;;2.45;0.95;;;14.40;99.90;;;;;;5053173;28;20257;-82
2022/09/18 01:07:29;;;;;;;3.57;1.00;;;14.40;99.90;;;;;;5062221;28;20012;-82
2022/09/18 01:10:00;;;;;;;2.45;0.80;;;14.40;99.90;;;;;;5041875;28;20742;-81
2022/09/18 01:12:48;;;;;;;2.38;0.90;;;14.50;99.90;;;;;;5046220;28;20231;-80
2022/09/18 01:15:41;;;;;;;1.25;0.88;;;14.40;99.90;;;;;;5042836;28;20225;-80
2022/09/18 01:18:15;;;;;;;2.28;0.82;;;14.40;99.90;;;;;;5052176;28;20016;-80
2022/09/18 01:21:08;;;;;;;4.27;0.90;;;14.40;99.90;;;;;;5078254;28;20028;-80
2022/09/18 01:23:52;;;;;;;2.83;0.90;;;14.40;99.90;;;;;;5077447;28;20032;-80
2022/09/18 01:26:40;;;;;;;1.42;0.90;;;14.40;99.90;;;;;;5039473;28;20052;-81
2022/09/18 01:29:11;;;;;;;2.60;0.82;;;14.40;99.90;;;;;;5061769;28;20024;-81
2022/09/18 01:31:53;;;;;;;2.35;1.00;;;14.30;99.90;;;;;;5056947;28;20032;-80
2022/09/18 01:34:30;;;;;;;1.20;0.70;;;14.30;99.90;;;;;;5059743;28;20028;-81
2022/09/18 01:37:17;;;;;;;1.77;0.95;;;14.30;99.90;;;;;;5072493;28;20340;-81
2022/09/18 01:40:09;;;;;;;2.38;1.10;;;14.30;99.90;;;;;;5047961;28;20032;-81
2022/09/18 01:42:36;;;;;;;2.78;0.88;;;14.30;99.90;;;;;;5039834;28;20032;-81
2022/09/18 01:45:10;;;;;;;2.33;1.23;;;14.20;99.90;;;;;;5067297;28;20414;-82
2022/09/18 01:47:45;;;;;;;2.47;0.90;;;14.20;99.90;;;;;;5041708;28;20040;-81
2022/09/18 01:50:13;;;;;;;4.20;0.95;;;14.20;99.90;;;;;;5064306;28;20020;-81
2022/09/18 01:52:58;;;;;;;2.45;0.90;;;14.20;99.90;;;;;;5070307;28;20027;-81
2022/09/18 01:55:28;;;;;;;2.58;0.93;;;14.10;99.90;;;;;;5050927;28;20381;-81
2022/09/18 01:58:16;;;;;;;2.05;0.80;;;14.10;99.90;;;;;;5095352;28;20031;-81
2022/09/18 02:00:47;;;;;;;2.67;0.90;;;14.10;99.90;;;;;;5066817;28;20467;-81
2022/09/18 02:03:21;;;;;;;1.95;1.00;;;14.00;99.90;;;;;;5054707;28;20035;-81
2022/09/18 02:06:25;;;;;;;1.10;0.80;;;14.00;99.90;;;;;;5068206;28;20034;-81
2022/09/18 02:08:53;;;;;;;3.17;0.90;;;14.00;99.90;;;;;;5079318;28;20138;-81
2022/09/18 02:11:20;;;;;;;2.38;1.00;;;13.90;99.90;;;;;;5041880;28;20570;-81
2022/09/18 02:13:56;;;;;;;0.97;0.70;;;13.90;99.90;;;;;;5066379;28;20027;-82
2022/09/18 02:16:33;;;;;;;2.08;0.80;;;13.90;99.90;;;;;;5052778;28;20378;-81
2022/09/18 02:19:04;;;;;;;2.70;0.90;;;13.80;99.80;;;;;;5060864;28;20024;-82
2022/09/18 02:21:31;;;;;;;1.85;0.73;;;13.80;99.80;;;;;;5058502;28;20156;-82
2022/09/18 02:24:03;;;;;;;3.70;1.10;;;13.70;99.80;;;;;;5071224;28;20858;-82
2022/09/18 02:26:31;;;;;;;2.33;0.80;;;13.70;99.80;;;;;;5067938;28;20263;-83
2022/09/18 02:28:58;;;;;;;3.15;1.00;;;13.60;99.70;;;;;;5074393;28;20029;-83
2022/09/18 02:31:24;;;;;;;2.83;1.05;;;13.60;99.80;;;;;;5064959;28;20050;-83
2022/09/18 02:33:49;;;;;;;1.48;0.70;;;13.60;99.90;;;;;;5042057;28;20068;-82
2022/09/18 02:36:44;;;;;;;2.23;0.90;;;13.50;99.90;;;;;;5067650;28;20082;-83
2022/09/18 02:39:40;;;;;;;2.50;1.00;;;13.50;99.90;;;;;;5059678;28;20025;-82
2022/09/18 02:42:30;;;;;;;2.70;0.80;;;13.50;99.90;;;;;;5076780;28;20044;-82
2022/09/18 02:45:01;;;;;;;1.88;1.00;;;13.40;99.90;;;;;;5077550;27;20523;-82
2022/09/18 02:48:04;;;;;;;2.43;0.90;;;13.50;99.90;;;;;;5059048;28;20054;-82
2022/09/18 02:50:48;;;;;;;1.10;0.90;;;13.50;99.90;;;;;;5046719;28;20480;-82
2022/09/18 02:53:26;;;;;;;5.13;0.90;;;13.50;99.90;;;;;;5058584;28;20504;-82
2022/09/18 02:56:07;;;;;;;3.33;0.95;;;13.50;99.90;;;;;;5075118;28;20112;-81
2022/09/18 02:58:49;;;;;;;2.28;0.80;;;13.40;99.90;;;;;;5077466;28;20028;-83
2022/09/18 03:01:17;;;;;;;2.13;0.80;;;13.50;99.90;;;;;;5076129;28;20499;-82
2022/09/18 03:03:43;;;;;;;1.95;0.90;;;13.50;99.90;;;;;;5042770;28;23008;-82
2022/09/18 03:06:09;;;;;;;2.83;0.80;;;13.50;99.90;;;;;;5074279;28;20021;-82
2022/09/18 03:08:34;;;;;;;1.73;0.90;;;13.50;99.90;;;;;;5065716;28;20020;-82
2022/09/18 03:11:00;;;;;;;1.27;0.90;;;13.50;99.90;;;;;;5084878;28;20050;-81
2022/09/18 03:13:26;;;;;;;1.20;0.90;;;13.50;99.90;;;;;;5076907;28;20028;-81
2022/09/18 03:15:53;;;;;;;3.90;0.77;;;13.50;99.90;;;;;;5066865;28;20106;-80
2022/09/18 03:18:19;;;;;;;2.67;0.80;;;13.50;99.90;;;;;;5071865;27;20027;-81
2022/09/18 03:20:45;;;;;;;1.83;0.80;;;13.50;99.90;;;;;;5067533;28;20420;-82
2022/09/18 03:23:10;;;;;;;1.67;0.93;;;13.50;99.90;;;;;;5062620;28;20021;-81
2022/09/18 03:25:36;;;;;;;1.55;0.90;;;13.40;99.90;;;;;;5067127;28;20522;-81
2022/09/18 03:28:02;;;;;;;0.97;0.80;;;13.40;99.90;;;;;;5070497;28;21436;-81
2022/09/18 03:30:27;;;;;;;0.82;0.80;;;13.50;99.90;;;;;;5068947;28;20090;-82
2022/09/18 03:32:53;;;;;;;2.97;0.83;;;13.40;99.90;;;;;;5073598;28;20583;-83
2022/09/18 03:35:19;;;;;;;1.13;0.73;;;13.50;99.90;;;;;;5058019;28;20024;-82
2022/09/18 03:37:45;;;;;;;0.80;0.80;;;13.50;99.90;;;;;;5060825;28;20013;-82
2022/09/18 03:40:10;;;;;;;2.47;1.00;;;13.40;99.90;;;;;;5038514;28;20027;-83
2022/09/18 03:42:36;;;;;;;1.97;0.87;;;13.40;99.90;;;;;;5057059;28;20046;-83
2022/09/18 03:45:03;;;;;;;1.75;0.73;;;13.50;99.90;;;;;;5070830;28;20040;-84
2022/09/18 03:47:29;;;;;;;2.50;0.88;;;13.50;99.90;;;;;;5059235;28;20045;-82
2022/09/18 03:49:54;;;;;;;1.38;0.90;;;13.50;99.90;;;;;;5034439;28;20029;-83
2022/09/18 03:52:20;;;;;;;1.27;0.70;;;13.50;99.90;;;;;;5081485;28;20030;-83
2022/09/18 03:54:46;;;;;;;1.85;0.90;;;13.50;99.90;;;;;;5044269;28;20491;-82
2022/09/18 03:57:12;;;;;;;2.07;0.87;;;13.40;99.90;;;;;;5080099;28;20035;-83
2022/09/18 03:59:37;;;;;;;2.05;0.80;;;13.50;99.90;;;;;;5064673;28;20102;-81
2022/09/18 04:02:03;;;;;;;2.23;1.00;;;13.50;99.90;;;;;;5040949;28;20665;-83
2022/09/18 04:04:29;;;;;;;1.95;0.90;;;13.50;99.90;;;;;;5079925;28;20035;-81
2022/09/18 04:06:54;;;;;;;4.23;1.00;;;13.40;99.90;;;;;;5046131;28;20398;-83
2022/09/18 04:09:20;;;;;;;2.90;0.85;;;13.40;99.90;;;;;;5072238;28;20121;-82
2022/09/18 04:11:45;;;;;;;1.87;0.80;;;13.40;99.90;;;;;;5066141;28;20087;-82
2022/09/18 04:14:11;;;;;;;1.47;0.77;;;13.40;99.90;;;;;;5088346;28;20089;-82
2022/09/18 04:16:37;;;;;;;1.77;0.73;;;13.40;99.90;;;;;;5065295;28;20024;-83
2022/09/18 04:19:03;;;;;;;1.65;0.70;;;13.40;99.90;;;;;;5044230;28;20065;-82
2022/09/18 04:21:28;;;;;;;1.67;0.77;;;13.40;99.90;;;;;;5039249;28;20528;-82
2022/09/18 04:23:58;;;;;;;0.98;0.80;;;13.40;99.90;;;;;;5065609;28;20513;-82
2022/09/18 04:26:25;;;;;;;2.50;0.73;;;13.40;99.90;;;;;;5067869;28;20024;-81
2022/09/18 04:28:50;;;;;;;1.20;0.68;;;13.40;99.90;;;;;;5054051;28;20441;-82
2022/09/18 04:31:16;;;;;;;0.95;0.80;;;13.40;99.90;;;;;;5058340;28;20512;-83
2022/09/18 04:33:42;;;;;;;2.70;0.90;;;13.40;99.90;;;;;;5045989;28;20395;-82
2022/09/18 04:36:07;;;;;;;2.25;0.63;;;13.30;99.90;;;;;;5077260;28;20070;-82
2022/09/18 04:38:33;;;;;;;1.33;0.80;;;13.30;99.90;;;;;;5058666;28;20484;-82
2022/09/18 04:40:59;;;;;;;1.60;0.83;;;13.30;99.90;;;;;;5054250;28;20032;-82
2022/09/18 04:43:26;;;;;;;1.17;0.87;;;13.30;99.90;;;;;;5062939;28;20566;-81
2022/09/18 04:45:53;;;;;;;1.17;1.02;;;13.30;99.90;;;;;;5069211;28;20027;-82
2022/09/18 04:48:19;;;;;;;1.98;0.80;;;13.30;99.90;;;;;;5058573;28;20182;-82
2022/09/18 04:50:46;;;;;;;2.95;1.00;;;13.30;99.90;;;;;;5085507;28;20538;-82
2022/09/18 04:53:12;;;;;;;1.42;1.00;;;13.20;99.90;;;;;;5081083;28;20048;-81
2022/09/18 04:55:38;;;;;;;3.80;0.90;;;13.20;99.90;;;;;;5062068;28;20031;-81
2022/09/18 04:58:05;;;;;;;2.97;1.10;;;13.20;99.90;;;;;;5048320;28;20498;-82
2022/09/18 05:00:31;;;;;;;1.92;1.10;;;13.20;99.90;;;;;;5071389;28;20047;-82
2022/09/18 05:02:57;;;;;;;2.75;1.17;;;13.20;99.90;;;;;;5056680;28;20451;-82
2022/09/18 05:05:23;;;;;;;3.50;1.10;;;13.20;99.90;;;;;;5055272;28;20028;-81
2022/09/18 05:07:49;;;;;;;5.07;1.10;;;13.10;99.90;;;;;;5052743;28;20027;-82
2022/09/18 05:10:15;;;;;;;2.80;1.03;;;13.20;99.90;;;;;;5061037;28;20031;-81
2022/09/18 05:12:42;;;;;;;1.30;1.00;;;13.10;99.90;;;;;;5059334;28;20067;-82
2022/09/18 05:15:08;;;;;;;1.98;1.20;;;13.20;99.90;;;;;;5051960;28;20017;-82
2022/09/18 05:17:34;;;;;;;1.95;1.10;;;13.20;99.90;;;;;;5062303;28;20121;-81
2022/09/18 05:20:00;;;;;;;2.23;1.20;;;13.20;99.90;;;;;;5073345;28;20024;-82
2022/09/18 05:22:25;;;;;;;2.03;1.00;;;13.20;99.90;;;;;;5061903;28;20111;-81
2022/09/18 05:24:51;;;;;;;1.80;1.08;;;13.20;99.90;;;;;;5078388;28;20146;-81
2022/09/18 05:27:17;;;;;;;1.40;1.00;;;13.20;99.90;;;;;;5049623;28;20496;-82
2022/09/18 05:29:42;;;;;;;1.55;0.95;;;13.20;99.90;;;;;;5065030;28;20318;-81
2022/09/18 05:32:08;;;;;;;2.10;1.10;;;13.20;99.90;;;;;;5060595;28;20560;-82
2022/09/18 05:34:33;;;;;;;1.50;1.00;;;13.20;99.90;;;;;;5065060;28;20343;-81
2022/09/18 05:36:59;;;;;;;3.77;1.10;;;13.20;99.90;;;;;;5056177;28;20191;-82
2022/09/18 05:39:25;;;;;;;1.77;1.20;;;13.20;99.90;;;;;;5060751;28;20024;-83
2022/09/18 05:41:51;;;;;;;2.00;1.13;;;13.20;99.90;;;;;;5051948;28;20741;-83
2022/09/18 05:44:17;;;;;;;3.72;2.08;;;13.20;99.90;;;;;;5050873;28;20023;-83
2022/09/18 05:46:45;;;;;;;7.03;3.33;;;13.20;99.90;;;;;;5066708;28;20240;-84
2022/09/18 05:49:11;;;;;;;4.47;3.10;;;13.30;99.90;;;;;;5049214;28;20454;-85
2022/09/18 05:51:37;;;;;;;2.47;1.73;;;13.30;99.90;;;;;;5047118;28;20419;-85
2022/09/18 05:54:04;;;;;;;2.38;1.65;;;13.30;99.90;;;;;;5050163;28;20032;-85
2022/09/18 05:56:30;;;;;;;2.13;1.53;;;13.30;99.90;;;;;;5043353;28;20118;-85
2022/09/18 05:58:56;;;;;;;1.98;1.10;;;13.30;99.90;;;;;;5041389;28;20020;-84
2022/09/18 06:01:22;;;;;;;2.35;1.27;;;13.30;99.90;;;;;;5058228;28;20248;-83
2022/09/18 06:03:49;;;;;;;2.13;1.33;;;13.30;99.90;;;;;;5069439;28;20032;-83
2022/09/18 06:06:15;;;;;;;1.42;1.02;;;13.40;99.90;;;;;;5039902;28;20353;-82
2022/09/18 06:08:41;;;;;;;2.25;1.20;;;13.40;99.90;;;;;;5068545;27;20016;-83
2022/09/18 06:11:07;;;;;;;2.73;1.17;;;13.40;99.90;;;;;;5041024;28;20039;-83
2022/09/18 06:13:32;;;;;;;2.60;1.30;;;13.40;99.90;;;;;;5045477;28;23993;-83
2022/09/18 06:15:58;;;;;;;1.65;1.20;;;13.40;99.90;;;;;;5043909;28;20465;-82
2022/09/18 06:18:24;;;;;;;2.50;1.30;;;13.40;99.90;;;;;;5066043;28;20034;-82
2022/09/18 06:20:53;;;;;;;2.65;1.30;;;13.40;99.90;;;;;;5069108;28;20064;-82
2022/09/18 06:23:20;;;;;;;1.70;1.05;;;13.40;99.90;;;;;;5065607;28;20056;-82
2022/09/18 06:25:46;;;;;;;2.40;1.25;;;13.40;99.90;;;;;;5051961;28;20541;-82
2022/09/18 06:28:11;;;;;;;2.23;1.03;;;13.40;99.90;;;;;;5069436;28;20029;-82
2022/09/18 06:30:37;;;;;;;2.03;1.30;;;13.40;99.90;;;;;;5044263;28;20511;-82
2022/09/18 06:33:06;;;;;;;1.58;1.10;;;13.40;99.90;;;;;;5052650;28;20032;-82
2022/09/18 06:35:33;;;;;;;1.63;1.27;;;13.50;99.90;;;;;;5049910;28;20293;-83
2022/09/18 06:38:02;;;;;;;1.67;1.10;;;13.50;99.90;;;;;;5052604;28;20122;-82
2022/09/18 06:40:29;;;;;;;1.70;1.23;;;13.50;99.90;;;;;;5059965;28;20206;-82
2022/09/18 06:43:00;;;;;;;2.22;1.30;;;13.50;99.90;;;;;;5067198;28;20020;-82
2022/09/18 06:45:27;;;;;;;3.45;1.30;;;13.50;99.90;;;;;;5036394;28;21340;-84
2022/09/18 06:47:54;;;;;;;2.58;1.48;;;13.50;99.90;;;;;;5047211;28;20088;-83
2022/09/18 06:50:23;;;;;;;2.93;1.30;;;13.50;99.90;;;;;;5070324;28;20282;-83
2022/09/18 06:52:49;;;;;;;2.45;1.45;;;13.50;99.90;;;;;;5076408;27;20054;-83
2022/09/18 06:55:18;;;;;;;1.80;1.40;;;13.60;99.90;;;;;;5070187;28;20056;-83
2022/09/18 06:57:59;;;;;;;2.70;1.38;;;13.50;99.90;;;;;;5066991;28;20522;-83
2022/09/18 07:00:25;;;;;;;2.45;1.33;;;13.60;99.90;;;;;;5048943;28;20342;-83
2022/09/18 07:02:59;;;;;;;2.47;1.40;;;13.60;99.90;;;;;;5067513;28;20476;-83
2022/09/18 07:05:26;;;;;;;3.38;1.48;;;13.60;99.90;;;;;;5070345;28;20032;-83
2022/09/18 07:07:52;;;;;;;2.25;1.40;;;13.70;99.90;;;;;;5059370;28;20020;-83
2022/09/18 07:10:18;;;;;;;1.63;1.43;;;13.80;99.90;;;;;;5064832;28;20476;-83
2022/09/18 07:12:47;;;;;;;2.17;1.40;;;13.80;99.90;;;;;;5044372;28;20578;-83
2022/09/18 07:15:17;;;;;;;1.83;1.40;;;13.80;99.90;;;;;;5068441;28;20062;-82
2022/09/18 07:17:43;;;;;;;2.40;1.60;;;13.80;99.90;;;;;;5046153;28;20137;-83
2022/09/18 07:20:10;;;;;;;2.38;1.48;;;13.80;99.90;;;;;;5060147;28;20019;-82
2022/09/18 07:22:36;;;;;;;1.83;1.30;;;13.80;99.90;;;;;;5040505;28;20514;-83
2022/09/18 07:25:02;;;;;;;2.92;1.38;;;13.90;99.90;;;;;;5063238;28;20520;-82
2022/09/18 07:27:28;;;;;;;1.70;1.20;;;13.90;99.90;;;;;;5032021;28;20248;-83
2022/09/18 07:29:54;;;;;;;2.73;1.40;;;13.90;99.90;;;;;;5083107;28;20035;-84
2022/09/18 07:32:20;;;;;;;4.10;1.50;;;14.00;99.90;;;;;;5028166;28;20686;-82
2022/09/18 07:34:46;;;;;;;2.90;1.33;;;14.00;99.90;;;;;;5072182;28;20217;-82
2022/09/18 07:37:12;;;;;;;1.63;1.40;;;14.10;99.90;;;;;;5063225;28;20038;-81
2022/09/18 07:39:38;;;;;;;1.55;1.10;;;14.00;99.90;;;;;;5065259;28;20028;-81
2022/09/18 07:42:03;;;;;;;2.17;1.20;;;14.10;99.90;;;;;;5046296;28;20024;-81
2022/09/18 07:44:33;;;;;;;2.43;1.20;;;14.10;99.90;;;;;;5048212;28;20051;-81
2022/09/18 07:46:58;;;;;;;2.15;1.30;;;14.20;99.90;;;;;;5066755;28;20076;-82
2022/09/18 07:49:24;;;;;;;3.72;1.58;;;14.20;99.90;;;;;;5034707;28;20123;-81
2022/09/18 07:51:50;;;;;;;1.70;1.20;;;14.20;99.90;;;;;;5062257;28;20115;-81
2022/09/18 07:54:16;;;;;;;2.05;1.20;;;14.20;99.90;;;;;;5048725;28;20757;-81
2022/09/18 07:56:41;;;;;;;2.33;1.10;;;14.30;99.90;;;;;;5048398;28;20486;-80
2022/09/18 07:59:07;;;;;;;2.00;1.23;;;14.30;99.90;;;;;;5052139;28;20457;-82
2022/09/18 08:01:33;;;;;;;1.50;1.17;;;14.30;99.90;;;;;;5057079;28;20539;-82
2022/09/18 08:04:00;;;;;;;1.85;1.15;;;14.30;99.90;;;;;;5057800;28;20019;-80
2022/09/18 08:06:27;;;;;;;1.33;1.10;;;14.30;99.90;;;;;;5056191;28;20251;-82
2022/09/18 08:08:52;;;;;;;3.03;1.40;;;14.30;99.90;;;;;;5039626;28;20052;-83
2022/09/18 08:11:18;;;;;;;1.97;1.30;;;14.40;99.90;;;;;;5056391;28;20633;-81
2022/09/18 08:13:46;;;;;;;5.10;1.30;;;14.40;99.90;;;;;;5046292;28;20036;-81
2022/09/18 08:16:12;;;;;;;1.73;1.20;;;14.40;99.90;;;;;;5064592;28;20660;-82
2022/09/18 08:18:38;;;;;;;1.80;1.33;;;14.50;99.90;;;;;;5056255;28;20024;-84
2022/09/18 08:21:04;;;;;;;2.90;1.30;;;14.50;99.90;;;;;;5033672;28;20027;-81
2022/09/18 08:23:30;;;;;;;2.07;1.30;;;14.60;99.90;;;;;;5041523;28;20117;-81
2022/09/18 08:25:59;;;;;;;2.83;1.38;;;14.70;99.90;;;;;;5070100;28;20029;-81
2022/09/18 08:28:25;;;;;;;1.88;1.25;;;14.80;99.90;;;;;;5069472;28;20781;-82
2022/09/18 08:30:50;;;;;;;3.50;1.23;;;14.90;99.90;;;;;;5068324;28;20086;-80
2022/09/18 08:33:16;;;;;;;2.57;1.40;;;15.00;99.90;;;;;;5027163;28;20029;-83
2022/09/18 08:35:42;;;;;;;2.00;1.20;;;15.00;99.90;;;;;;5057318;28;20504;-81
2022/09/18 08:38:10;;;;;;;2.28;1.50;;;15.20;99.90;;;;;;5046544;28;20066;-81
2022/09/18 08:40:35;;;;;;;2.10;1.30;;;15.30;99.90;;;;;;5054778;28;20037;-80
2022/09/18 08:43:07;;;;;;;2.58;1.40;;;15.40;99.90;;;;;;5064044;28;20078;-81
2022/09/18 08:45:50;;;;;;;2.92;1.40;;;15.60;99.90;;;;;;5057208;28;20060;-80
2022/09/18 08:48:38;;;;;;;3.00;1.20;;;15.70;99.90;;;;;;5073192;28;20036;-82
2022/09/18 08:51:23;;;;;;;2.90;1.40;;;15.70;99.90;;;;;;5073099;28;20016;-82
2022/09/18 08:53:55;;;;;;;2.05;1.30;;;15.70;99.90;;;;;;5079382;28;20027;-81
2022/09/18 08:56:23;;;;;;;2.17;1.40;;;15.70;99.90;;;;;;5073181;28;20082;-81
2022/09/18 08:58:59;;;;;;;3.42;1.60;;;15.70;99.90;;;;;;5069860;27;21635;-81
2022/09/18 09:01:39;;;;;;;1.50;1.20;;;15.70;99.90;;;;;;5044518;28;20039;-82
2022/09/18 09:04:11;;;;;;;5.10;1.30;;;15.70;99.90;;;;;;5044332;28;20032;-82
2022/09/18 09:07:00;;;;;;;3.25;1.60;;;15.60;99.90;;;;;;5043377;28;20024;-81
2022/09/18 09:09:53;;;;;;;2.10;1.30;;;15.60;99.60;;;;;;5033810;28;20480;-80
2022/09/18 09:12:40;;;;;;;2.65;1.35;;;15.60;99.90;;;;;;5035874;28;20648;-80
2022/09/18 09:15:17;;;;;;;2.23;1.40;;;15.60;99.90;;;;;;5064599;27;20394;-80
2022/09/18 09:17:53;;;;;;;2.00;1.35;;;15.60;99.90;;;;;;5075674;28;20638;-81
2022/09/18 09:20:22;;;;;;;1.77;1.30;;;15.70;99.90;;;;;;5058427;28;20702;-82
2022/09/18 09:22:59;;;;;;;2.65;1.40;;;15.80;99.90;;;;;;5069178;28;20026;-80
2022/09/18 09:25:38;;;;;;;2.17;1.27;;;15.90;99.90;;;;;;5064900;28;20155;-81
2022/09/18 09:28:15;;;;;;;3.23;1.30;;;16.00;99.90;;;;;;5065038;28;20135;-80
2022/09/18 09:30:45;;;;;;;2.35;1.15;;;16.10;99.90;;;;;;5060637;28;20017;-80
2022/09/18 09:33:22;;;;;;;1.60;1.23;;;16.20;99.90;;;;;;5059544;28;20032;-79
2022/09/18 09:35:53;;;;;;;2.70;1.17;;;16.30;99.90;;;;;;5071037;27;20035;-81
2022/09/18 09:38:30;;;;;;;2.08;1.25;;;16.40;99.90;;;;;;5048594;28;20028;-80
2022/09/18 09:41:00;;;;;;;5.27;1.60;;;16.40;99.90;;;;;;5063459;28;20067;-81
2022/09/18 09:43:48;;;;;;;2.22;1.20;;;16.50;99.90;;;;;;5047967;28;20063;-81
2022/09/18 09:46:28;;;;;;;2.03;1.40;;;16.50;99.90;;;;;;5041031;28;20236;-82
2022/09/18 09:49:32;;;;;;;3.00;1.40;;;16.60;99.90;;;;;;5071771;28;20075;-81
2022/09/18 09:52:06;;;;;;;2.42;1.30;;;16.60;99.90;;;;;;5005499;27;20049;-84
2022/09/18 09:54:32;;;;;;;3.53;1.50;;;16.70;99.90;;;;;;5043505;28;20029;-82
2022/09/18 09:57:06;;;;;;;2.55;1.40;;;16.70;99.90;;;;;;5058889;28;20085;-82
2022/09/18 10:00:03;;;;;;;2.83;1.50;;;16.70;99.90;;;;;;5067718;28;20550;-82
2022/09/18 10:02:41;;;;;;;2.23;1.20;;;16.80;99.90;;;;;;5032553;28;20030;-82
2022/09/18 10:05:37;;;;;;;3.17;1.30;;;16.80;99.90;;;;;;5061387;28;20023;-81
2022/09/18 10:08:26;;;;;;;1.90;1.20;;;16.90;99.20;;;;;;4982097;28;20042;-82
2022/09/18 10:10:58;;;;;;;1.95;1.30;;;17.00;99.60;;;;;;5066100;28;20036;-81
2022/09/18 10:13:39;;;;;;;2.60;1.35;;;17.00;99.90;;;;;;5059720;28;20188;-82
2022/09/18 10:16:37;;;;;;;1.57;1.17;;;17.10;99.90;;;;;;5044769;28;20036;-82
2022/09/18 10:19:03;;;;;;;1.98;1.13;;;17.10;99.90;;;;;;5054208;28;20032;-81
2022/09/18 10:21:34;;;;;;;2.55;1.20;;;17.20;99.90;;;;;;5061303;28;21411;-78
2022/09/18 10:24:16;;;;;;;3.00;1.30;;;17.30;99.90;;;;;;5083421;28;20025;-78
2022/09/18 10:26:47;;;;;;;3.00;1.50;;;17.40;99.90;;;;;;5063084;28;20036;-79
2022/09/18 10:29:15;;;;;;;2.77;1.37;;;17.60;99.90;;;;;;5071933;28;20297;-78
2022/09/18 10:31:49;;;;;;;2.53;1.20;;;17.80;99.90;;;;;;5081451;27;22745;-79
2022/09/18 10:34:41;;;;;;;3.35;1.40;;;17.90;99.90;;;;;;5060502;28;20032;-79
2022/09/18 10:37:28;;;;;;;1.55;1.10;;;18.10;99.90;;;;;;5062062;28;20031;-78
2022/09/18 10:39:56;;;;;;;2.33;1.27;;;18.30;99.90;;;;;;5046606;28;20023;-80
2022/09/18 10:42:24;;;;;;;3.77;1.23;;;18.40;99.90;;;;;;5054051;28;20304;-78
2022/09/18 10:44:53;;;;;;;3.03;1.25;;;18.50;99.90;;;;;;5063617;28;20024;-80
2022/09/18 10:47:23;;;;;;;2.75;1.10;;;18.60;99.90;;;;;;5060576;28;20127;-78
2022/09/18 10:49:55;;;;;;;1.42;1.13;;;18.70;99.90;;;;;;5052550;28;20028;-79
2022/09/18 10:52:41;;;;;;;2.13;1.15;;;18.80;99.90;;;;;;5059507;28;20155;-79
2022/09/18 10:55:06;;;;;;;1.67;1.00;;;18.80;99.90;;;;;;5055290;28;20384;-80
2022/09/18 10:57:52;;;;;;;2.28;1.30;;;18.80;99.90;;;;;;5067088;28;20253;-80
2022/09/18 11:00:19;;;;;;;2.40;1.10;;;18.90;99.60;;;;;;5071041;28;20430;-78
2022/09/18 11:02:48;;;;;;;1.83;1.00;;;18.80;99.80;;;;;;5048074;28;20085;-79
2022/09/18 11:05:27;;;;;;;5.45;1.30;;;18.80;99.80;;;;;;5049088;28;20024;-79
2022/09/18 11:07:55;;;;;;;3.05;1.13;;;18.80;98.90;;;;;;5052518;27;20201;-78
2022/09/18 11:10:24;;;;;;;2.97;1.38;;;18.80;99.60;;;;;;5055123;28;20708;-79
2022/09/18 11:12:53;;;;;;;2.57;1.20;;;18.80;99.60;;;;;;5054976;28;20109;-80
2022/09/18 11:15:22;;;;;;;1.95;1.20;;;18.80;99.90;;;;;;5034874;28;20222;-81
2022/09/18 11:17:54;;;;;;;2.17;1.40;;;18.80;99.90;;;;;;5062510;28;20031;-81
2022/09/18 11:20:26;;;;;;;3.65;1.30;;;18.90;99.40;;;;;;5035981;28;20013;-81
2022/09/18 11:22:53;;;;;;;1.48;1.00;;;18.90;99.50;;;;;;5070422;27;20644;-81
2022/09/18 11:25:25;;;;;;;2.53;1.03;;;19.00;99.90;;;;;;5057941;28;20053;-80
2022/09/18 11:27:54;;;;;;;1.38;1.13;;;19.00;99.90;;;;;;5064091;28;20062;-80
2022/09/18 11:30:23;;;;;;;1.33;1.00;;;19.20;99.90;;;;;;5059499;28;20291;-80
2022/09/18 11:33:12;;;;;;;1.50;1.10;;;19.20;99.90;;;;;;5058140;28;20028;-80
2022/09/18 11:35:45;;;;;;;2.03;0.98;;;19.30;99.50;;;;;;5055016;28;20143;-82
2022/09/18 11:38:16;;;;;;;1.30;0.90;;;19.40;99.90;;;;;;5065551;27;20154;-82
2022/09/18 11:40:49;;;;;;;1.23;0.85;;;19.50;99.80;;;;;;5057530;28;20052;-81
2022/09/18 11:43:36;;;;;;;3.10;0.90;;;19.60;99.50;;;;;;5065116;28;20121;-81
2022/09/18 11:46:22;;;;;;;1.00;0.70;;;19.60;97.60;;;;;;5070646;27;20109;-80
2022/09/18 11:48:57;;;;;;;0.90;0.70;;;19.70;97.10;;;;;;5061269;28;20396;-81
2022/09/18 11:51:28;;;;;;;0.80;0.70;;;19.70;98.40;;;;;;5040006;28;20028;-82
2022/09/18 11:54:05;;;;;;;1.45;0.90;;;19.70;98.80;;;;;;5040842;28;20048;-81
2022/09/18 11:56:46;;;;;;;1.65;0.70;;;19.70;97.40;;;;;;5053697;28;20777;-80
2022/09/18 11:59:50;;;;;;;1.10;0.70;;;19.70;96.90;;;;;;5052759;28;20028;-79
2022/09/18 12:02:45;;;;;;;1.00;0.70;;;19.60;95.50;;;;;;5002202;28;20093;-81
2022/09/18 12:05:26;;;;;;;1.83;0.90;;;19.60;96.60;;;;;;5044738;28;20487;-81
2022/09/18 12:08:22;;;;;;;0.80;0.80;;;19.70;96.50;;;;;;5069567;28;20044;-81
2022/09/18 12:10:57;;;;;;;0.70;0.70;;;19.70;95.50;;;;;;5048367;28;20032;-80
2022/09/18 12:13:27;;;;;;;0.95;0.73;;;19.70;96.60;;;;;;5072981;28;20377;-81
2022/09/18 12:16:01;;;;;;;0.70;0.70;;;19.70;96.60;;;;;;5049621;28;20039;-82
2022/09/18 12:18:32;;;;;;;1.53;0.70;;;19.60;95.80;;;;;;5073650;28;20093;-82
2022/09/18 12:21:13;;;;;;;1.20;0.70;;;19.50;96.10;;;;;;5054159;28;20030;-80
2022/09/18 12:23:38;;;;;;;1.13;0.80;;;19.40;94.60;;;;;;5063605;28;20178;-81
2022/09/18 12:26:53;;;;;;;1.70;0.70;;;19.40;96.20;;;;;;5053231;28;20476;-80
2022/09/18 12:29:51;;;;;;;1.17;0.80;;;19.30;94.10;;;;;;5052131;28;20036;-79
2022/09/18 12:33:01;;;;;;;1.05;0.82;;;19.10;94.40;;;;;;5059006;28;20031;-78
2022/09/18 12:35:55;;;;;;;0.70;0.60;;;19.00;94.00;;;;;;5046952;28;20488;-79
2022/09/18 12:38:56;;;;;;;0.70;0.60;;;18.90;95.00;;;;;;5050099;28;20039;-79
2022/09/18 12:41:33;;;;;;;1.33;0.63;;;18.90;93.70;;;;;;5050804;28;20447;-78
2022/09/18 12:44:20;;;;;;;0.98;0.50;;;18.80;94.90;;;;;;5056661;28;20767;-79
2022/09/18 12:47:07;;;;;;;0.70;0.50;;;18.80;96.10;;;;;;5037045;28;21143;-79
2022/09/18 12:49:52;;;;;;;0.82;0.60;;;18.80;97.00;;;;;;5056938;28;20028;-77
2022/09/18 12:52:23;;;;;;;0.82;0.60;;;18.80;96.10;;;;;;5063610;28;20036;-79
2022/09/18 12:55:27;;;;;;;1.90;0.60;;;18.90;98.70;;;;;;5077537;28;20028;-79
2022/09/18 12:57:58;;;;;;;0.60;0.52;;;19.00;95.70;;;;;;5046503;28;20607;-79
2022/09/18 13:00:24;;;;;;;0.45;0.40;;;19.00;96.50;;;;;;5062131;28;20028;-80
2022/09/18 13:03:13;;;;;;;1.30;0.57;;;19.00;96.80;;;;;;5042255;28;20289;-79
2022/09/18 13:05:42;;;;;;;0.60;0.40;;;18.90;94.50;;;;;;5053914;28;20035;-79
2022/09/18 13:08:17;;;;;;;0.70;0.50;;;19.00;96.60;;;;;;5038421;28;20040;-79
2022/09/18 13:10:45;;;;;;;1.10;0.50;;;19.00;96.70;;;;;;5068654;28;20793;-79
2022/09/18 13:13:18;;;;;;;0.40;0.40;;;19.00;98.00;;;;;;5043168;28;20107;-80
2022/09/18 13:16:07;;;;;;;0.65;0.50;;;19.10;96.90;;;;;;5063859;28;20043;-80